Stevensville, MT (59870)

3:30 AM MST on February 23, 2017 (GMT -0700)
SteviBigSky | | Change Station

Elev 3415 ft 46.49 °N, 114.07 °W | Updated 8 seconds ago

Overcast
Overcast
31.6 °F
Feels Like 23 °F
N
10.5
Wind Variable Wind from NNE
Gusts 12.3 mph

Today
High -- | Low -- °F
--% Chance of Precip.
Yesterday
High -- | Low -- °F
Precip. -- in
Pressure 30.00 in
Visibility 7.0 miles
Clouds Few 3400 ft
Overcast 5500 ft
Windchill 23 °F
Dew Point 25 °F
Humidity 76%
Rainfall 0.00 in
Snow Depth Not available.
7:25 AM 6:14 PM
Waning Crescent, 11% visible
METAR KMSO 230953Z AUTO 00000KT 7SM -SN FEW034 OVC055 M01/M02 A2992 RMK AO2 SNB29 SLP159 P0000 T10111022
Pressure 30.00 in
Visibility 7.0 miles
Clouds Few 3400 ft
Overcast 5500 ft
Windchill 23 °F
Dew Point 25 °F
Humidity 76%
Rainfall 0.00 in
Snow Depth Not available.
7:25 AM 6:14 PM
Waning Crescent, 11% visible
METAR KMSO 230953Z AUTO 00000KT 7SM -SN FEW034 OVC055 M01/M02 A2992 RMK AO2 SNB29 SLP159 P0000 T10111022

Get Your Daily Forecast Email!

Thanks for signing up!

Be on the lookout for a verification email in your inbox.

You'll start receiving the daily forecast at 8 AM.

×

10-Day Weather Forecast

Almanac

Astronomy

Feb. 23, 2017 Rise Set
Actual Time
Civil Twilight
Nautical Twilight
Astronomical Twilight
Moon
Length of Visible Light
Length of Day
Tomorrow will be .
, % of the Moon is Illuminated

Today's Extremes

State Highs State Lows

Community

WunderPhotos

Upload Photos

1,962,540 photos uploaded!

WunderBlog® & News

Nearby

Air Quality

  Air Quality AQ Index Pollutant
Not available.

Snow Depth

Station Depth Elevation

Earthquake Activity

City Distance Mag. Time & Date
Minimum magnitude displayed is 2.5.

Coastal Water Temperatures

Place Temperature

Stations

Nearby Weather Stations

Station Location Temp. Windchill Dew Point Humidity Wind Precip. Elev Updated Type
                   

Watches & Warnings

There are currently no watches in effect.